Steinsville, Pennsylvania
Current Conditions -  °F | °C
As of 2:54 PM on Friday 21 Nov 2014 (Local Time) from KRDG Reporting Station
Clear Clear  
Wind Chill: 26°   Ceiling: Unl
Heat Index: 35°   Visibility: 10mi
Dew Point:   Wind: 13mph
Humidity: 31%   Direction: 310°NW
Pressure: 30.39"   Gusts: NA
Location:  40.6329°N, 75.8768°W
Report Text: KRDG 211954Z AUTO 31011KT 10SM CLR 02/M14 A3039 RMK AO2 SLP301 T00171139
Loading
Personal Weather Stations






























Interactive Weather Map New forecast layout! Learn more

10-Day Weather Forecast

Advertisements
Track Severe Weather on mobile